Time;durP1;ratioP1;P1;durP2;ratioP2;P2;SDS_P1;SDS_P2;PMS_P1;PMS_P2;Temp;Humidity;BMP_temperature;BMP_pressure;BME280_temperature;BME280_humidity;BME280_pressure;Samples;Min_cycle;Max_cycle;Signal;HPM_P1;HPM_P2
2022/08/14 00:00:07;;;;;;;3.30;1.75;;;;;;;20.22;83.96;157602.00;4893740;29;20035;-74
2022/08/14 00:02:37;;;;;;;2.65;1.77;;;;;;;20.13;84.85;157577.50;4913075;29;20043;-76
2022/08/14 00:05:05;;;;;;;4.97;1.90;;;;;;;20.07;85.92;157562.03;4922191;29;20040;-76
2022/08/14 00:07:30;;;;;;;6.45;2.08;;;;;;;20.01;86.66;157547.84;4912923;29;20036;-76
2022/08/14 00:09:56;;;;;;;4.65;2.13;;;;;;;20.05;86.06;157556.88;4908462;29;20160;-77
2022/08/14 00:12:23;;;;;;;2.40;1.90;;;;;;;19.98;87.24;157540.09;4908431;29;20040;-77
2022/08/14 00:14:48;;;;;;;2.80;1.90;;;;;;;20.07;85.52;157562.03;4914243;29;20057;-77
2022/08/14 00:17:14;;;;;;;3.95;1.80;;;;;;;20.15;86.42;157583.94;4893754;29;20513;-77
2022/08/14 00:19:39;;;;;;;5.60;1.92;;;;;;;20.12;85.98;157576.25;4912175;29;20028;-77
2022/08/14 00:22:05;;;;;;;11.57;2.05;;;;;;;20.16;85.09;157585.28;4905592;29;20071;-77
2022/08/14 00:24:30;;;;;;;7.80;2.25;;;;;;;20.16;85.13;157585.28;4893723;29;20483;-77
2022/08/14 00:26:57;;;;;;;4.72;2.00;;;;;;;20.17;84.82;157589.16;4912474;29;20067;-76
2022/08/14 00:29:22;;;;;;;3.10;2.00;;;;;;;20.26;84.47;157609.78;4911735;29;20114;-76
2022/08/14 00:31:48;;;;;;;10.07;2.35;;;;;;;20.21;85.49;157598.13;4913432;29;20569;-76
2022/08/14 00:34:14;;;;;;;7.78;2.10;;;;;;;20.13;86.58;157578.78;4912423;29;20032;-75
2022/08/14 00:36:39;;;;;;;3.90;1.67;;;;;;;20.10;86.51;157571.09;4913363;29;20036;-75
2022/08/14 00:39:05;;;;;;;3.42;1.88;;;;;;;19.95;86.37;157532.38;4879203;29;20573;-76
2022/08/14 00:41:31;;;;;;;6.53;2.10;;;;;;;19.92;87.94;157525.91;4915786;29;20032;-76
2022/08/14 00:43:57;;;;;;;5.07;2.03;;;;;;;19.96;87.57;157534.94;4912135;29;20420;-75
2022/08/14 00:46:24;;;;;;;2.53;2.00;;;;;;;19.93;87.51;157527.19;4908081;29;20032;-77
2022/08/14 00:48:49;;;;;;;4.50;2.08;;;;;;;19.88;87.52;157514.31;4919395;29;20108;-77
2022/08/14 00:51:15;;;;;;;3.78;2.03;;;;;;;19.87;86.73;157511.72;4912023;29;20024;-78
2022/08/14 00:53:41;;;;;;;4.50;1.80;;;;;;;19.93;86.93;157528.50;4907537;29;20108;-76
2022/08/14 00:56:07;;;;;;;2.60;1.70;;;;;;;19.96;87.63;157536.22;4905282;29;20040;-76
2022/08/14 00:58:33;;;;;;;3.58;1.70;;;;;;;19.94;88.01;157529.78;4896312;29;20048;-76
2022/08/14 01:01:03;;;;;;;3.85;1.90;;;;;;;19.88;86.85;157515.59;4896166;29;20575;-77
2022/08/14 01:03:29;;;;;;;4.75;2.00;;;;;;;19.93;86.86;157528.50;4889547;29;20099;-77
2022/08/14 01:05:55;;;;;;;2.70;1.95;;;;;;;19.90;87.91;157519.47;4891210;29;20044;-78
2022/08/14 01:08:24;;;;;;;4.15;1.88;;;;;;;19.81;88.23;157497.53;4892639;29;20491;-76
2022/08/14 01:10:50;;;;;;;4.40;1.63;;;;;;;19.77;88.56;157487.22;4899573;29;20126;-76
2022/08/14 01:13:23;;;;;;;4.15;1.90;;;;;;;19.70;89.05;157470.38;4890613;29;20063;-77
2022/08/14 01:15:52;;;;;;;4.63;2.10;;;;;;;19.76;89.68;157485.94;4912561;29;20032;-75
2022/08/14 01:21:15;;;;;;;2.47;1.95;;;;;;;19.65;89.92;157457.50;4907203;29;20028;-75
2022/08/14 01:23:47;;;;;;;7.20;2.10;;;;;;;19.58;90.87;157440.72;4891580;29;20072;-75
2022/08/14 01:26:15;;;;;;;4.18;2.10;;;;;;;19.56;90.29;157435.56;4889403;29;20044;-76
2022/08/14 01:28:41;;;;;;;3.88;1.70;;;;;;;19.51;91.68;157422.66;4898679;29;20414;-76
2022/08/14 01:31:11;;;;;;;7.07;1.90;;;;;;;19.48;91.98;157413.63;4909286;29;20044;-75
2022/08/14 01:33:40;;;;;;;8.27;1.95;;;;;;;19.48;91.40;157413.63;4911383;29;20059;-76
2022/08/14 01:36:08;;;;;;;5.78;2.10;;;;;;;19.49;91.32;157417.50;4890898;29;20043;-76
2022/08/14 01:38:34;;;;;;;4.50;1.98;;;;;;;19.49;90.99;157417.50;4908715;29;20040;-76
2022/08/14 01:41:11;;;;;;;4.57;1.83;;;;;;;19.51;91.14;157422.66;4892170;29;20032;-76
2022/08/14 01:43:50;;;;;;;3.83;1.90;;;;;;;19.54;90.85;157429.13;4906821;29;20036;-77
2022/08/14 01:46:17;;;;;;;2.85;1.88;;;;;;;19.58;91.36;157440.72;4927024;29;20040;-74
2022/08/14 01:48:44;;;;;;;2.83;2.08;;;;;;;19.56;91.36;157434.28;4882694;29;20044;-75
2022/08/14 01:51:12;;;;;;;9.50;2.00;;;;;;;19.51;92.43;157422.66;4910039;29;20055;-75
2022/08/14 01:53:40;;;;;;;7.68;2.28;;;;;;;19.41;93.94;157398.16;4912074;29;20091;-76
2022/08/14 01:56:06;;;;;;;5.35;2.03;;;;;;;19.33;94.32;157377.53;4910381;29;20032;-76
2022/08/14 01:58:32;;;;;;;3.15;1.80;;;;;;;19.28;95.20;157363.34;4910683;29;20039;-75
2022/08/14 02:00:58;;;;;;;5.22;2.10;;;;;;;19.18;96.21;157340.16;4911368;29;20175;-76
2022/08/14 02:03:29;;;;;;;2.40;1.80;;;;;;;19.09;97.59;157315.66;4888627;29;20510;-76
2022/08/14 02:05:58;;;;;;;13.88;2.20;;;;;;;19.02;97.61;157300.19;4907756;29;20052;-76
2022/08/14 02:08:29;;;;;;;4.65;2.00;;;;;;;19.02;98.70;157300.19;4904288;29;20052;-76
2022/08/14 02:13:43;;;;;;;5.30;1.88;;;;;;;18.99;99.85;157291.16;4909611;29;20087;-76
2022/08/14 02:16:10;;;;;;;5.63;1.90;;;;;;;18.99;99.86;157291.16;4911111;29;20123;-76
2022/08/14 02:18:37;;;;;;;11.40;2.30;;;;;;;18.91;100.00;157271.81;4914072;29;20035;-75
2022/08/14 02:21:03;;;;;;;9.02;2.50;;;;;;;18.96;100.00;157283.41;4907383;29;20084;-74
2022/08/14 02:23:31;;;;;;;9.82;2.72;;;;;;;18.96;100.00;157283.41;4916460;29;20042;-75
2022/08/14 02:26:00;;;;;;;4.50;2.20;;;;;;;19.01;100.00;157297.59;4916132;29;20169;-75
2022/08/14 02:28:30;;;;;;;4.82;1.85;;;;;;;19.02;100.00;157300.19;4909861;29;20064;-77
2022/08/14 02:30:58;;;;;;;6.90;2.10;;;;;;;18.99;100.00;157292.44;4931127;29;20047;-77
2022/08/14 02:33:26;;;;;;;3.53;2.10;;;;;;;18.86;100.00;157260.19;4916017;29;20028;-77
2022/08/14 02:35:51;;;;;;;9.05;2.13;;;;;;;18.85;100.00;157256.31;4895121;29;20398;-76
2022/08/14 02:38:17;;;;;;;7.00;1.92;;;;;;;18.84;100.00;157255.03;4916748;29;20095;-77
2022/08/14 02:40:42;;;;;;;5.85;1.95;;;;;;;18.83;100.00;157251.16;4915684;29;20406;-76
2022/08/14 02:43:08;;;;;;;7.10;1.98;;;;;;;18.78;100.00;157238.22;4924177;29;20040;-76
2022/08/14 02:45:34;;;;;;;3.38;1.80;;;;;;;18.86;99.14;157260.19;4896901;29;20047;-75
2022/08/14 02:48:02;;;;;;;5.20;2.05;;;;;;;18.83;99.51;157252.44;4927348;29;20035;-77
2022/08/14 02:50:28;;;;;;;3.35;1.83;;;;;;;18.83;98.88;157252.44;4916569;29;20051;-75
2022/08/14 02:52:54;;;;;;;3.47;2.08;;;;;;;18.87;98.66;157261.47;4919446;29;20036;-76
2022/08/14 02:55:20;;;;;;;4.82;1.85;;;;;;;18.91;99.24;157271.81;4918351;29;20574;-76
2022/08/14 02:57:50;;;;;;;5.35;1.90;;;;;;;18.89;99.27;157265.34;4895191;29;20123;-74
2022/08/14 03:00:17;;;;;;;5.43;1.80;;;;;;;18.85;99.33;157257.63;4896863;29;20043;-75
2022/08/14 03:02:42;;;;;;;13.25;2.15;;;;;;;18.82;99.44;157249.88;4915315;29;20055;-76
2022/08/14 03:05:08;;;;;;;6.20;1.90;;;;;;;18.79;99.12;157240.81;4906647;29;20068;-76
2022/08/14 03:07:33;;;;;;;4.80;1.85;;;;;;;18.82;99.83;157249.88;4913130;29;20518;-76
2022/08/14 03:09:59;;;;;;;8.73;1.77;;;;;;;18.77;99.84;157235.66;4906511;29;20047;-76
2022/08/14 03:12:25;;;;;;;7.35;1.77;;;;;;;18.71;100.00;157221.47;4929113;29;20038;-77
2022/08/14 03:14:52;;;;;;;5.97;1.90;;;;;;;18.68;100.00;157213.72;4915452;29;20478;-78
2022/08/14 03:17:17;;;;;;;4.72;1.98;;;;;;;18.62;100.00;157199.53;4895607;29;20040;-77
2022/08/14 03:19:43;;;;;;;4.65;2.08;;;;;;;18.54;100.00;157178.94;4900670;29;20080;-77
2022/08/14 03:22:09;;;;;;;4.78;1.80;;;;;;;18.54;100.00;157178.94;4898144;29;20038;-76
2022/08/14 03:24:37;;;;;;;3.63;2.05;;;;;;;18.48;100.00;157164.75;4928251;29;20053;-76
2022/08/14 03:27:05;;;;;;;3.72;1.80;;;;;;;18.44;100.00;157154.47;4909251;29;20112;-77
2022/08/14 03:29:31;;;;;;;3.53;1.80;;;;;;;18.36;100.00;157133.81;4898040;29;20045;-77
2022/08/14 03:31:58;;;;;;;6.03;2.30;;;;;;;18.23;100.00;157100.28;4896859;29;20091;-75
2022/08/14 03:34:26;;;;;;;6.35;2.25;;;;;;;18.24;100.00;157104.16;4912584;29;20048;-76
2022/08/14 03:36:54;;;;;;;3.90;2.00;;;;;;;18.19;100.00;157091.28;4913248;29;20095;-77
2022/08/14 03:39:21;;;;;;;3.78;1.70;;;;;;;18.16;100.00;157082.25;4929459;29;20040;-77
2022/08/14 03:41:51;;;;;;;3.47;2.08;;;;;;;18.09;100.00;157066.78;4897957;29;20043;-75
2022/08/14 03:44:17;;;;;;;2.58;1.90;;;;;;;18.07;100.00;157061.63;4913122;29;20147;-77
2022/08/14 03:46:42;;;;;;;2.55;2.00;;;;;;;18.05;100.00;157056.50;4896944;29;20581;-76
2022/08/14 03:49:08;;;;;;;3.75;1.80;;;;;;;18.05;100.00;157056.50;4911065;29;20044;-76
2022/08/14 03:51:35;;;;;;;5.65;2.15;;;;;;;18.02;100.00;157047.47;4893770;29;20036;-76
2022/08/14 03:54:07;;;;;;;4.80;1.85;;;;;;;18.01;100.00;157046.19;4913648;29;20487;-76
2022/08/14 03:56:35;;;;;;;4.80;2.20;;;;;;;17.99;100.00;157039.72;4897725;29;20507;-76
2022/08/14 03:59:06;;;;;;;2.80;2.03;;;;;;;17.94;100.00;157028.13;4928311;29;20040;-76
2022/08/14 04:01:32;;;;;;;4.43;2.00;;;;;;;17.92;100.00;157023.00;4927258;29;20127;-76
2022/08/14 04:04:01;;;;;;;9.57;2.40;;;;;;;17.85;100.00;157004.94;4927548;29;20123;-76
2022/08/14 04:06:27;;;;;;;6.47;2.13;;;;;;;17.81;100.00;156994.59;4897031;29;20032;-77
2022/08/14 04:08:53;;;;;;;4.85;2.10;;;;;;;17.84;100.00;157003.66;4908038;29;20040;-77
2022/08/14 04:11:19;;;;;;;4.88;1.90;;;;;;;17.78;100.00;156988.16;4910945;29;21593;-76
2022/08/14 04:13:45;;;;;;;5.75;2.40;;;;;;;17.80;100.00;156993.31;4913234;29;20131;-76
2022/08/14 04:16:19;;;;;;;3.53;2.40;;;;;;;17.81;100.00;156994.59;4913729;29;20467;-76
2022/08/14 04:18:48;;;;;;;7.32;2.05;;;;;;;17.75;100.00;156980.41;4926283;29;20047;-76
2022/08/14 04:21:15;;;;;;;4.68;2.15;;;;;;;17.79;100.00;156989.44;4911341;29;20558;-77
2022/08/14 04:23:41;;;;;;;6.07;2.30;;;;;;;17.82;100.00;156998.47;4912281;29;20071;-76
2022/08/14 04:26:09;;;;;;;9.73;2.55;;;;;;;17.82;100.00;156998.47;4928158;29;20072;-76
2022/08/14 04:28:36;;;;;;;2.88;1.85;;;;;;;17.83;100.00;156999.75;4915645;29;20529;-76
2022/08/14 04:31:03;;;;;;;10.05;2.42;;;;;;;17.82;100.00;156998.47;4913879;29;20047;-76
2022/08/14 04:33:29;;;;;;;3.05;1.95;;;;;;;17.84;100.00;157003.66;4908589;29;21942;-76
2022/08/14 04:35:55;;;;;;;5.20;2.25;;;;;;;17.83;100.00;156999.75;4912443;29;20134;-76
2022/08/14 04:43:50;;;;;;;5.65;2.17;;;;;;;17.85;100.00;157004.94;4911419;29;20038;-75
2022/08/14 04:46:20;;;;;;;5.32;1.90;;;;;;;17.93;100.00;157025.53;4913111;29;20032;-76
2022/08/14 04:48:47;;;;;;;4.07;2.38;;;;;;;17.97;100.00;157034.56;4895116;29;20127;-76
2022/08/14 04:51:15;;;;;;;7.07;1.90;;;;;;;18.07;100.00;157061.63;4899001;29;20044;-76
2022/08/14 04:53:45;;;;;;;3.22;2.15;;;;;;;18.19;100.00;157090.00;4912570;29;20513;-77
2022/08/14 04:56:13;;;;;;;3.88;1.83;;;;;;;18.22;100.00;157097.75;4895600;29;20055;-75
2022/08/14 04:58:41;;;;;;;10.55;2.30;;;;;;;18.31;100.00;157120.94;4909730;29;20043;-76
2022/08/14 05:01:09;;;;;;;4.75;2.00;;;;;;;18.35;100.00;157131.25;4913456;29;20028;-75
2022/08/14 05:03:37;;;;;;;6.70;1.90;;;;;;;18.48;100.00;157164.75;4911214;29;20119;-76
2022/08/14 05:06:07;;;;;;;5.18;2.10;;;;;;;18.55;100.00;157180.22;4911607;28;20048;-75
2022/08/14 05:08:33;;;;;;;5.32;2.10;;;;;;;18.62;100.00;157198.28;4910433;29;20121;-75
2022/08/14 05:11:01;;;;;;;5.65;2.00;;;;;;;18.70;100.00;157218.88;4910451;29;20133;-75
2022/08/14 05:13:29;;;;;;;7.55;2.15;;;;;;;18.82;100.00;157248.63;4912696;29;20032;-76
2022/08/14 05:15:57;;;;;;;2.25;1.77;;;;;;;18.93;100.00;157276.97;4895133;29;20654;-77
2022/08/14 05:18:30;;;;;;;6.13;2.05;;;;;;;19.04;100.00;157305.34;4909903;29;20036;-76
2022/08/14 05:20:58;;;;;;;9.93;1.77;;;;;;;19.16;100.00;157335.00;4895146;29;20163;-77
2022/08/14 05:23:29;;;;;;;2.55;1.65;;;;;;;19.39;100.00;157393.00;4895356;29;20044;-76
2022/08/14 05:26:11;;;;;;;4.43;2.03;;;;;;;19.44;100.00;157405.91;4890794;29;20498;-76
2022/08/14 05:28:41;;;;;;;4.95;2.10;;;;;;;19.58;100.00;157440.72;4906896;29;20134;-77
2022/08/14 05:31:06;;;;;;;3.50;1.60;;;;;;;19.67;100.00;157462.66;4889644;29;20463;-77
2022/08/14 05:33:33;;;;;;;2.15;1.63;;;;;;;19.71;100.00;157471.69;4926668;29;20064;-77
2022/08/14 05:36:03;;;;;;;6.28;1.95;;;;;;;19.72;100.00;157475.63;4911752;29;20498;-77
2022/08/14 05:38:38;;;;;;;6.45;2.33;;;;;;;19.69;100.00;157467.81;4905628;29;20047;-77
2022/08/14 05:41:06;;;;;;;4.85;2.08;;;;;;;19.69;100.00;157466.53;4903611;29;20032;-77
2022/08/14 05:43:32;;;;;;;5.72;1.90;;;;;;;19.67;100.00;157461.38;4894300;29;20526;-76
2022/08/14 05:45:58;;;;;;;6.82;1.98;;;;;;;19.65;100.00;157458.78;4895744;29;20111;-76
2022/08/14 05:48:24;;;;;;;5.30;1.92;;;;;;;19.75;100.00;157482.06;4894366;29;20067;-77
2022/08/14 05:50:53;;;;;;;5.53;2.10;;;;;;;19.95;100.00;157533.66;4911167;29;20040;-76
2022/08/14 05:53:24;;;;;;;4.43;2.00;;;;;;;20.09;100.00;157567.19;4911325;29;20040;-77
2022/08/14 05:55:50;;;;;;;8.80;2.00;;;;;;;20.28;98.56;157616.22;4911668;29;20040;-76
2022/08/14 05:58:16;;;;;;;8.55;1.90;;;;;;;20.45;98.62;157658.78;4895040;29;20451;-77
2022/08/14 06:00:43;;;;;;;6.53;1.90;;;;;;;20.53;97.77;157679.47;4897189;29;20035;-77
2022/08/14 06:03:13;;;;;;;8.50;1.90;;;;;;;20.59;97.08;157694.94;4910137;29;20036;-77
2022/08/14 06:05:40;;;;;;;4.70;1.73;;;;;;;20.74;96.16;157731.16;4880950;29;20036;-77
2022/08/14 06:08:22;;;;;;;2.15;1.80;;;;;;;20.88;95.63;157765.97;4908229;29;20040;-77
2022/08/14 06:10:49;;;;;;;9.07;2.05;;;;;;;20.98;94.99;157791.75;4898908;29;20535;-77
2022/08/14 06:13:15;;;;;;;7.43;1.90;;;;;;;21.10;95.66;157821.50;4908981;29;20032;-77
2022/08/14 06:15:41;;;;;;;6.88;1.70;;;;;;;21.23;93.59;157855.06;4884236;29;20036;-77
2022/08/14 06:18:07;;;;;;;4.63;1.80;;;;;;;21.38;91.98;157892.50;4913000;29;20083;-77
2022/08/14 06:20:33;;;;;;;3.35;1.70;;;;;;;21.46;93.14;157911.91;4911706;29;20163;-77
2022/08/14 06:22:59;;;;;;;3.60;1.60;;;;;;;21.64;91.01;157957.06;4889926;29;20063;-78
2022/08/14 06:25:25;;;;;;;4.00;1.75;;;;;;;21.67;91.50;157966.09;4911184;29;20619;-77
2022/08/14 06:27:51;;;;;;;6.03;1.70;;;;;;;21.81;91.17;158000.94;4910473;29;20047;-77
2022/08/14 06:30:18;;;;;;;4.97;2.10;;;;;;;21.89;89.04;158021.66;4892088;29;20462;-79
2022/08/14 06:32:45;;;;;;;10.38;2.03;;;;;;;22.05;90.66;158061.66;4894822;29;20047;-78
2022/08/14 06:35:13;;;;;;;4.80;1.80;;;;;;;22.14;88.22;158084.91;4894506;29;20064;-77
2022/08/14 06:38:08;;;;;;;6.70;1.70;;;;;;;22.20;89.29;158099.13;4912634;29;20134;-76
2022/08/14 06:40:35;;;;;;;3.60;1.80;;;;;;;22.28;86.96;158118.53;4909939;29;20134;-77
2022/08/14 06:43:05;;;;;;;7.88;1.85;;;;;;;22.42;87.06;158153.44;4891826;29;20090;-78
2022/08/14 06:45:33;;;;;;;4.97;2.03;;;;;;;22.54;85.97;158184.41;4890343;29;20040;-76
2022/08/14 06:48:00;;;;;;;6.10;1.83;;;;;;;22.70;85.43;158225.78;4896574;29;20192;-76
2022/08/14 06:50:27;;;;;;;5.68;1.88;;;;;;;22.79;84.53;158246.44;4894129;29;20084;-75
2022/08/14 06:52:53;;;;;;;5.88;1.90;;;;;;;22.90;84.45;158274.84;4913441;29;20150;-78
2022/08/14 06:55:19;;;;;;;7.15;1.70;;;;;;;22.95;83.85;158287.78;4908304;29;20503;-78
2022/08/14 06:57:50;;;;;;;6.72;1.95;;;;;;;22.95;84.05;158287.78;4909050;29;20062;-78
2022/08/14 07:00:21;;;;;;;4.10;1.60;;;;;;;22.93;85.66;158283.91;4912356;29;20051;-77
2022/08/14 07:05:45;;;;;;;11.15;1.70;;;;;;;22.99;83.29;158298.09;4902237;29;20044;-77
2022/08/14 07:08:25;;;;;;;4.45;1.92;;;;;;;23.16;84.17;158339.53;4914251;29;20028;-77
2022/08/14 07:10:53;;;;;;;2.75;1.60;;;;;;;23.23;82.45;158358.91;4897188;29;20036;-78
2022/08/14 07:13:20;;;;;;;2.63;1.92;;;;;;;23.19;85.35;158347.25;4915843;29;20067;-76
2022/08/14 07:15:49;;;;;;;6.57;1.88;;;;;;;23.19;83.02;158347.25;4913157;29;20159;-77
2022/08/14 07:18:29;;;;;;;5.43;1.80;;;;;;;23.05;83.33;158312.38;4915628;29;20045;-78
2022/08/14 07:20:57;;;;;;;9.80;2.30;;;;;;;22.97;84.71;158292.94;4911643;29;20036;-78
2022/08/14 07:23:23;;;;;;;7.78;1.80;;;;;;;23.02;83.66;158305.88;4913930;29;20494;-77
2022/08/14 07:25:51;;;;;;;6.82;1.95;;;;;;;22.99;83.82;158298.09;4913901;29;20040;-77
2022/08/14 07:28:19;;;;;;;5.50;1.60;;;;;;;22.88;84.61;158270.97;4929674;29;20104;-78
2022/08/14 07:30:45;;;;;;;8.02;2.05;;;;;;;22.88;85.12;158269.69;4927946;29;20048;-78
2022/08/14 07:33:11;;;;;;;11.48;2.00;;;;;;;22.95;84.32;158287.78;4895945;29;20482;-78
2022/08/14 07:35:39;;;;;;;5.22;1.60;;;;;;;23.15;83.60;158338.25;4913859;29;20047;-78
2022/08/14 07:38:06;;;;;;;10.65;1.73;;;;;;;23.36;82.81;158389.88;4913015;29;20040;-77
2022/08/14 07:40:33;;;;;;;5.40;1.77;;;;;;;23.52;82.13;158431.25;4885365;29;20113;-78
2022/08/14 07:43:02;;;;;;;8.27;2.20;;;;;;;23.73;81.48;158482.97;4916350;29;20065;-78
2022/08/14 07:45:27;;;;;;;6.10;1.75;;;;;;;23.98;80.27;158547.66;4914514;29;20122;-77
2022/08/14 07:47:56;;;;;;;3.15;1.70;;;;;;;24.11;79.47;158580.00;4897613;29;20044;-79
2022/08/14 07:50:23;;;;;;;10.65;2.05;;;;;;;24.26;79.24;158617.44;4914810;29;20028;-78
2022/08/14 07:52:49;;;;;;;8.50;1.83;;;;;;;24.43;78.50;158661.44;4899305;29;20035;-77
2022/08/14 07:55:16;;;;;;;3.85;2.05;;;;;;;24.56;78.12;158692.50;4892612;29;20494;-77
2022/08/14 07:57:45;;;;;;;8.48;1.90;;;;;;;24.60;80.45;158702.81;4912460;29;20039;-76
2022/08/14 08:00:21;;;;;;;11.68;1.70;;;;;;;24.73;77.45;158735.16;4912409;29;20525;-77
2022/08/14 08:02:53;;;;;;;8.65;2.13;;;;;;;24.55;76.94;158689.94;4901403;29;20095;-78
2022/08/14 08:05:20;;;;;;;4.10;1.95;;;;;;;24.63;77.77;158710.59;4905980;29;20040;-75
2022/08/14 08:07:47;;;;;;;8.00;2.00;;;;;;;24.70;77.89;158728.72;4908301;29;20071;-75
2022/08/14 08:10:31;;;;;;;9.30;1.90;;;;;;;24.81;77.16;158757.16;4912278;29;20032;-76
2022/08/14 08:13:07;;;;;;;7.00;1.95;;;;;;;25.05;75.63;158817.97;4920540;29;20067;-75
2022/08/14 08:15:35;;;;;;;6.45;1.92;;;;;;;25.18;74.62;158848.97;4908977;29;20036;-75
2022/08/14 08:18:05;;;;;;;6.88;2.05;;;;;;;25.15;73.81;158841.25;4907443;29;20039;-75
2022/08/14 08:20:33;;;;;;;8.25;2.22;;;;;;;25.16;76.14;158845.09;4909603;29;20155;-77
2022/08/14 08:23:00;;;;;;;10.43;2.17;;;;;;;25.35;72.86;158893.00;4913451;29;20082;-77
2022/08/14 08:25:28;;;;;;;3.22;1.83;;;;;;;25.64;71.18;158966.75;4914210;29;20087;-77
2022/08/14 08:28:01;;;;;;;6.10;2.00;;;;;;;25.90;70.59;159030.13;4895808;29;20039;-78
2022/08/14 08:30:29;;;;;;;11.32;2.80;;;;;;;26.11;70.15;159084.56;4926824;29;20036;-78
2022/08/14 08:32:56;;;;;;;7.00;1.92;;;;;;;26.30;68.74;159132.44;4895504;29;20103;-75
2022/08/14 08:35:24;;;;;;;5.65;2.10;;;;;;;26.19;69.29;159105.25;4911999;29;20032;-76
2022/08/14 08:37:51;;;;;;;7.35;2.25;;;;;;;26.31;69.03;159135.00;4927341;29;20040;-77
2022/08/14 08:40:34;;;;;;;6.95;2.20;;;;;;;26.30;70.40;159132.44;4908254;29;20032;-77
2022/08/14 08:43:00;;;;;;;7.55;2.05;;;;;;;26.34;69.03;159142.78;4890581;29;20498;-76
2022/08/14 08:45:26;;;;;;;6.35;2.22;;;;;;;26.66;68.85;159221.81;4896168;29;20520;-78
2022/08/14 08:47:52;;;;;;;4.43;2.60;;;;;;;26.75;66.57;159245.09;4900535;29;20048;-77
2022/08/14 08:50:26;;;;;;;2.75;1.95;;;;;;;26.87;66.21;159276.16;4909508;29;20062;-78
2022/08/14 08:52:53;;;;;;;6.88;2.30;;;;;;;26.97;66.05;159302.06;4909535;29;20087;-77
2022/08/14 08:55:31;;;;;;;4.38;2.10;;;;;;;26.94;65.60;159293.00;4894440;29;20055;-76
2022/08/14 08:58:00;;;;;;;8.50;2.03;;;;;;;26.68;68.13;159228.25;4911735;29;20086;-76
2022/08/14 09:00:28;;;;;;;7.53;2.50;;;;;;;26.63;68.63;159215.31;4900540;29;20037;-76
2022/08/14 09:03:00;;;;;;;7.78;2.25;;;;;;;26.71;67.29;159234.72;4915881;29;20490;-76
2022/08/14 09:05:26;;;;;;;;;;;;;;;26.70;67.86;159232.16;4899844;29;20039;-76
2022/08/14 09:07:51;;;;;;;4.22;2.08;;;;;;;26.73;67.11;159239.88;4928663;29;20448;-78
2022/08/14 09:10:18;;;;;;;6.72;2.15;;;;;;;27.03;66.11;159314.97;4915092;29;20237;-76
2022/08/14 09:12:45;;;;;;;9.63;2.47;;;;;;;27.21;66.07;159361.59;4912167;29;20031;-76
2022/08/14 09:15:10;;;;;;;8.55;2.45;;;;;;;27.56;64.35;159451.00;4912372;29;20056;-76
2022/08/14 09:17:36;;;;;;;8.95;2.33;;;;;;;27.79;61.98;159506.69;4892333;29;20074;-78
2022/08/14 09:20:03;;;;;;;5.35;2.50;;;;;;;27.90;61.88;159535.22;4912372;29;20156;-77
2022/08/14 09:22:29;;;;;;;5.93;2.60;;;;;;;28.12;61.07;159592.22;4908394;29;20133;-77
2022/08/14 09:24:56;;;;;;;6.63;2.50;;;;;;;28.26;60.65;159625.88;4910702;29;20047;-77
2022/08/14 09:27:21;;;;;;;8.65;2.30;;;;;;;28.21;61.25;159612.94;4911430;29;20155;-76
2022/08/14 09:29:47;;;;;;;8.38;3.20;;;;;;;28.10;60.58;159585.72;4924677;29;21995;-76
2022/08/14 09:32:26;;;;;;;4.05;2.30;;;;;;;28.07;61.09;159577.97;4908643;29;20039;-76
2022/08/14 09:35:20;;;;;;;12.20;2.70;;;;;;;28.10;60.77;159585.72;4896488;29;20052;-78
2022/08/14 09:38:15;;;;;;;5.30;2.85;;;;;;;27.92;60.94;159540.41;4908074;29;20414;-79
2022/08/14 09:40:57;;;;;;;6.20;2.90;;;;;;;27.90;60.70;159535.22;4893748;29;20050;-77
2022/08/14 09:43:35;;;;;;;;;;;;;;;27.93;59.83;159542.97;4909930;29;20040;-76
2022/08/14 09:46:05;;;;;;;5.65;2.60;;;;;;;28.11;59.96;159589.59;4925751;29;19915;-76
2022/08/14 09:48:31;;;;;;;7.57;2.67;;;;;;;28.17;61.34;159603.84;4890429;29;20211;-78
2022/08/14 09:50:58;;;;;;;4.57;3.10;;;;;;;28.20;60.94;159610.31;4908635;29;20119;-77
2022/08/14 09:53:46;;;;;;;7.72;2.88;;;;;;;28.44;60.00;159671.19;4910515;29;20512;-78
2022/08/14 09:56:12;;;;;;;5.25;3.17;;;;;;;28.40;59.29;159660.84;4909944;29;20092;-78
2022/08/14 09:58:45;;;;;;;6.20;2.80;;;;;;;28.56;59.37;159701.03;4906689;29;20032;-78
2022/08/14 10:01:13;;;;;;;5.60;3.20;;;;;;;28.71;59.39;159739.94;4894200;29;20051;-78
2022/08/14 10:03:51;;;;;;;4.15;2.78;;;;;;;28.83;58.58;159769.72;4907573;29;20099;-78
2022/08/14 10:06:20;;;;;;;6.97;3.00;;;;;;;29.17;57.03;159856.56;4927975;29;20092;-78
2022/08/14 10:08:47;;;;;;;7.78;3.22;;;;;;;29.23;56.15;159872.13;4912803;29;20046;-79
2022/08/14 10:11:18;;;;;;;5.22;2.88;;;;;;;29.34;56.61;159899.34;4911608;29;20063;-78
2022/08/14 10:13:44;;;;;;;7.97;3.10;;;;;;;29.49;57.32;159936.94;4924317;29;20724;-77
2022/08/14 10:16:10;;;;;;;4.40;2.97;;;;;;;29.65;54.47;159977.13;4892727;29;20063;-79
2022/08/14 10:18:36;;;;;;;5.38;2.85;;;;;;;29.92;56.11;160044.56;4910781;29;20044;-78
2022/08/14 10:21:04;;;;;;;6.40;3.10;;;;;;;29.93;53.11;160048.41;4908435;29;20038;-79
2022/08/14 10:23:51;;;;;;;7.60;2.80;;;;;;;29.61;53.77;159966.72;4924468;29;20096;-77
2022/08/14 10:26:19;;;;;;;3.80;2.78;;;;;;;29.33;55.56;159896.78;4905318;29;20040;-79
2022/08/14 10:28:48;;;;;;;7.30;3.10;;;;;;;29.20;57.49;159864.38;4906832;29;20040;-78
2022/08/14 10:31:28;;;;;;;7.03;3.00;;;;;;;29.00;56.15;159812.47;4898786;29;20043;-78
2022/08/14 10:34:11;;;;;;;6.88;3.70;;;;;;;28.76;56.88;159751.56;4901075;29;20031;-78
2022/08/14 10:36:40;;;;;;;6.07;3.20;;;;;;;28.71;57.09;159739.94;4911903;29;20039;-76
2022/08/14 10:39:19;;;;;;;6.57;3.17;;;;;;;28.47;57.18;159679.00;4905855;29;20056;-78
2022/08/14 10:41:45;;;;;;;6.40;3.30;;;;;;;28.28;58.06;159632.34;4914954;29;20107;-78
2022/08/14 10:44:17;;;;;;;7.88;3.35;;;;;;;28.26;58.31;159625.88;4914611;29;20032;-78
2022/08/14 10:46:44;;;;;;;;;;;;;;;28.16;57.39;159601.25;4916310;29;20028;-77
2022/08/14 10:49:21;;;;;;;7.32;3.70;;;;;;;28.14;56.91;159597.41;4914523;29;19911;-79
2022/08/14 10:51:58;;;;;;;6.45;3.22;;;;;;;28.25;57.38;159624.56;4896378;29;20125;-79
2022/08/14 10:54:30;;;;;;;6.78;3.28;;;;;;;28.26;57.87;159627.19;4897716;29;20028;-78
2022/08/14 10:57:26;;;;;;;6.80;3.57;;;;;;;28.46;58.30;159676.38;4913175;29;20090;-80
2022/08/14 11:00:00;;;;;;;5.45;3.30;;;;;;;28.61;57.27;159715.28;4927638;29;20394;-79
2022/08/14 11:02:36;;;;;;;4.32;3.10;;;;;;;28.66;57.90;159726.97;4899664;29;20036;-79
2022/08/14 11:05:17;;;;;;;10.23;3.50;;;;;;;28.76;56.97;159751.56;4910766;29;20031;-80
2022/08/14 11:07:56;;;;;;;6.82;3.55;;;;;;;28.72;57.00;159742.50;4909130;29;20051;-79
2022/08/14 11:10:25;;;;;;;6.88;3.70;;;;;;;28.73;55.64;159746.41;4928733;29;20036;-78
2022/08/14 11:12:55;;;;;;;8.95;3.88;;;;;;;28.72;55.53;159742.50;4913035;29;20059;-77
2022/08/14 11:15:26;;;;;;;7.57;3.35;;;;;;;28.53;57.26;159695.84;4914834;29;20064;-77
2022/08/14 11:17:53;;;;;;;5.25;3.78;;;;;;;28.61;57.61;159714.00;4914084;29;20047;-76
2022/08/14 11:20:21;;;;;;;3.70;3.40;;;;;;;28.58;55.55;159706.25;4906191;29;20028;-77
2022/08/14 11:22:51;;;;;;;5.65;3.65;;;;;;;28.35;56.25;159650.50;4880413;29;20532;-78
2022/08/14 11:25:19;;;;;;;5.88;3.17;;;;;;;28.18;57.74;159605.13;4930977;29;20519;-78
2022/08/14 11:27:45;;;;;;;5.38;3.58;;;;;;;28.25;60.90;159623.28;4930323;29;20075;-77
2022/08/14 11:30:18;;;;;;;5.95;3.22;;;;;;;28.38;56.35;159655.66;4910700;29;20035;-79
2022/08/14 11:32:47;;;;;;;4.45;3.28;;;;;;;28.30;57.06;159637.53;4898567;29;20040;-76
2022/08/14 11:35:19;;;;;;;6.22;3.70;;;;;;;28.41;58.13;159663.47;4900524;29;20062;-77
2022/08/14 11:37:58;;;;;;;5.90;3.20;;;;;;;28.49;60.18;159684.16;4919830;29;20031;-78
2022/08/14 11:40:33;;;;;;;7.30;3.33;;;;;;;28.49;59.42;159685.44;4914115;29;20032;-77
2022/08/14 11:43:01;;;;;;;8.35;3.40;;;;;;;28.35;60.38;159649.22;4895692;29;20075;-77
2022/08/14 11:45:31;;;;;;;7.55;3.38;;;;;;;28.26;61.07;159627.19;4898957;29;20036;-77